Terminal Aerodrome Forecast
Issued by NWS Northern Indiana

Home | Current Version | Previous Version | Graphics & Text | Print | Product List | Glossary On
Versions: 1 2 3 4 5 6 7 8 9 10 11 12 13 14 15
000
FTUS43 KIWX 021700
TAFFWA
TAF
KFWA 021730Z 0218/0318 23005KT P6SM SCT250
     FM022200 VRB03KT P6SM SCT100
     FM031000 12009KT P6SM OVC050
     FM031200 15010KT 2SM BR OVC015
      TEMPO 0312/0316 14015KT 1/2SM PL FG OVC009
     FM031600 16015KT 1SM FZRA BR OVC005 WS020/20035KT=

USA.gov is the U.S. government's official web portal to all federal, state and local government web resources and services.